sensor_id;sensor_type;location;lat;lon;timestamp;P1;durP1;ratioP1;P2;durP2;ratioP2
26034;SDS011;13809;48.632;11.576;2022-08-19T00:04:44;15.03;;;13.83;;
26034;SDS011;13809;48.632;11.576;2022-08-19T00:09:49;15.97;;;14.67;;
26034;SDS011;13809;48.632;11.576;2022-08-19T00:14:54;14.80;;;13.50;;
26034;SDS011;13809;48.632;11.576;2022-08-19T00:19:57;13.93;;;12.80;;
26034;SDS011;13809;48.632;11.576;2022-08-19T00:25:00;14.10;;;12.90;;
26034;SDS011;13809;48.632;11.576;2022-08-19T00:30:06;12.73;;;11.73;;
26034;SDS011;13809;48.632;11.576;2022-08-19T00:35:11;15.37;;;13.97;;
26034;SDS011;13809;48.632;11.576;2022-08-19T00:40:15;14.83;;;13.37;;
26034;SDS011;13809;48.632;11.576;2022-08-19T00:45:22;14.70;;;13.50;;
26034;SDS011;13809;48.632;11.576;2022-08-19T00:50:29;12.97;;;12.03;;
26034;SDS011;13809;48.632;11.576;2022-08-19T00:55:33;14.93;;;13.70;;
26034;SDS011;13809;48.632;11.576;2022-08-19T01:00:37;14.93;;;13.73;;
26034;SDS011;13809;48.632;11.576;2022-08-19T01:05:41;15.13;;;13.97;;
26034;SDS011;13809;48.632;11.576;2022-08-19T01:10:47;14.63;;;13.53;;
26034;SDS011;13809;48.632;11.576;2022-08-19T01:15:56;15.57;;;14.37;;
26034;SDS011;13809;48.632;11.576;2022-08-19T01:21:04;16.07;;;14.67;;
26034;SDS011;13809;48.632;11.576;2022-08-19T01:26:13;17.00;;;15.60;;
26034;SDS011;13809;48.632;11.576;2022-08-19T01:31:20;17.00;;;15.57;;
26034;SDS011;13809;48.632;11.576;2022-08-19T01:36:29;13.17;;;12.17;;
26034;SDS011;13809;48.632;11.576;2022-08-19T01:41:35;16.50;;;15.10;;
26034;SDS011;13809;48.632;11.576;2022-08-19T01:46:39;16.50;;;15.00;;
26034;SDS011;13809;48.632;11.576;2022-08-19T01:51:42;15.70;;;14.40;;
26034;SDS011;13809;48.632;11.576;2022-08-19T01:56:46;16.23;;;14.83;;
26034;SDS011;13809;48.632;11.576;2022-08-19T02:01:51;15.13;;;13.93;;
26034;SDS011;13809;48.632;11.576;2022-08-19T02:06:54;16.07;;;14.83;;
26034;SDS011;13809;48.632;11.576;2022-08-19T02:11:59;16.27;;;15.00;;
26034;SDS011;13809;48.632;11.576;2022-08-19T02:17:02;16.93;;;15.63;;
26034;SDS011;13809;48.632;11.576;2022-08-19T02:22:06;14.63;;;13.33;;
26034;SDS011;13809;48.632;11.576;2022-08-19T02:27:11;13.90;;;12.90;;
26034;SDS011;13809;48.632;11.576;2022-08-19T02:32:14;14.97;;;13.77;;
26034;SDS011;13809;48.632;11.576;2022-08-19T02:37:17;14.83;;;13.53;;
26034;SDS011;13809;48.632;11.576;2022-08-19T02:42:39;14.97;;;13.77;;
26034;SDS011;13809;48.632;11.576;2022-08-19T02:47:44;14.53;;;13.33;;
26034;SDS011;13809;48.632;11.576;2022-08-19T02:52:47;14.80;;;13.60;;
26034;SDS011;13809;48.632;11.576;2022-08-19T02:57:52;14.40;;;13.17;;
26034;SDS011;13809;48.632;11.576;2022-08-19T03:02:55;15.80;;;14.50;;
26034;SDS011;13809;48.632;11.576;2022-08-19T03:07:58;15.27;;;13.97;;
26034;SDS011;13809;48.632;11.576;2022-08-19T03:13:03;14.40;;;13.30;;
26034;SDS011;13809;48.632;11.576;2022-08-19T03:18:06;14.80;;;13.60;;
26034;SDS011;13809;48.632;11.576;2022-08-19T03:23:10;12.73;;;11.63;;
26034;SDS011;13809;48.632;11.576;2022-08-19T03:28:16;12.67;;;11.67;;
26034;SDS011;13809;48.632;11.576;2022-08-19T03:33:19;13.00;;;12.00;;
26034;SDS011;13809;48.632;11.576;2022-08-19T03:38:28;12.57;;;11.53;;
26034;SDS011;13809;48.632;11.576;2022-08-19T03:43:36;11.33;;;10.43;;
26034;SDS011;13809;48.632;11.576;2022-08-19T03:48:41;11.60;;;10.60;;
26034;SDS011;13809;48.632;11.576;2022-08-19T03:53:46;13.57;;;12.40;;
26034;SDS011;13809;48.632;11.576;2022-08-19T03:58:50;13.67;;;12.47;;
26034;SDS011;13809;48.632;11.576;2022-08-19T04:03:55;14.23;;;13.10;;
26034;SDS011;13809;48.632;11.576;2022-08-19T04:09:00;14.07;;;12.77;;
26034;SDS011;13809;48.632;11.576;2022-08-19T04:14:08;12.67;;;11.67;;
26034;SDS011;13809;48.632;11.576;2022-08-19T04:19:12;13.93;;;12.83;;
26034;SDS011;13809;48.632;11.576;2022-08-19T04:24:16;14.80;;;13.50;;
26034;SDS011;13809;48.632;11.576;2022-08-19T04:29:22;12.17;;;11.17;;
26034;SDS011;13809;48.632;11.576;2022-08-19T04:34:28;14.03;;;12.87;;
26034;SDS011;13809;48.632;11.576;2022-08-19T04:39:31;13.20;;;12.07;;
26034;SDS011;13809;48.632;11.576;2022-08-19T04:45:00;11.47;;;10.47;;
26034;SDS011;13809;48.632;11.576;2022-08-19T04:50:09;14.20;;;12.90;;
26034;SDS011;13809;48.632;11.576;2022-08-19T04:55:13;13.70;;;12.50;;
26034;SDS011;13809;48.632;11.576;2022-08-19T05:00:17;13.37;;;12.27;;
26034;SDS011;13809;48.632;11.576;2022-08-19T05:05:21;13.73;;;12.43;;
26034;SDS011;13809;48.632;11.576;2022-08-19T05:10:24;13.93;;;12.73;;
26034;SDS011;13809;48.632;11.576;2022-08-19T05:15:29;13.67;;;12.40;;
26034;SDS011;13809;48.632;11.576;2022-08-19T05:20:33;15.53;;;14.07;;
26034;SDS011;13809;48.632;11.576;2022-08-19T05:25:53;13.47;;;12.40;;
26034;SDS011;13809;48.632;11.576;2022-08-19T05:30:58;15.33;;;14.00;;
26034;SDS011;13809;48.632;11.576;2022-08-19T05:36:01;16.47;;;14.97;;
26034;SDS011;13809;48.632;11.576;2022-08-19T05:41:06;15.83;;;14.53;;
26034;SDS011;13809;48.632;11.576;2022-08-19T05:46:16;15.93;;;14.67;;
26034;SDS011;13809;48.632;11.576;2022-08-19T05:51:30;14.77;;;13.47;;
26034;SDS011;13809;48.632;11.576;2022-08-19T05:56:35;15.67;;;14.37;;
26034;SDS011;13809;48.632;11.576;2022-08-19T06:01:41;16.43;;;15.03;;
26034;SDS011;13809;48.632;11.576;2022-08-19T06:06:46;17.50;;;16.00;;
26034;SDS011;13809;48.632;11.576;2022-08-19T06:11:52;18.03;;;16.43;;
26034;SDS011;13809;48.632;11.576;2022-08-19T06:16:58;17.77;;;16.30;;
26034;SDS011;13809;48.632;11.576;2022-08-19T06:22:07;18.70;;;17.10;;
26034;SDS011;13809;48.632;11.576;2022-08-19T06:27:13;18.07;;;16.57;;
26034;SDS011;13809;48.632;11.576;2022-08-19T06:32:18;19.03;;;17.23;;
26034;SDS011;13809;48.632;11.576;2022-08-19T06:37:21;19.70;;;18.03;;
26034;SDS011;13809;48.632;11.576;2022-08-19T06:42:25;22.20;;;20.27;;
26034;SDS011;13809;48.632;11.576;2022-08-19T06:47:29;21.97;;;19.87;;
26034;SDS011;13809;48.632;11.576;2022-08-19T06:52:34;16.80;;;15.33;;
26034;SDS011;13809;48.632;11.576;2022-08-19T06:57:38;20.37;;;18.60;;
26034;SDS011;13809;48.632;11.576;2022-08-19T07:02:45;20.10;;;18.37;;
26034;SDS011;13809;48.632;11.576;2022-08-19T07:07:57;20.03;;;18.20;;
26034;SDS011;13809;48.632;11.576;2022-08-19T07:13:05;20.73;;;18.83;;
26034;SDS011;13809;48.632;11.576;2022-08-19T07:18:10;20.57;;;18.73;;
26034;SDS011;13809;48.632;11.576;2022-08-19T07:23:14;20.60;;;18.80;;
26034;SDS011;13809;48.632;11.576;2022-08-19T07:28:17;21.13;;;19.30;;
26034;SDS011;13809;48.632;11.576;2022-08-19T07:33:26;20.23;;;18.50;;
26034;SDS011;13809;48.632;11.576;2022-08-19T07:38:33;21.90;;;20.00;;
26034;SDS011;13809;48.632;11.576;2022-08-19T07:43:37;21.80;;;19.90;;
26034;SDS011;13809;48.632;11.576;2022-08-19T07:48:43;22.03;;;20.13;;
26034;SDS011;13809;48.632;11.576;2022-08-19T07:53:48;22.30;;;20.40;;
26034;SDS011;13809;48.632;11.576;2022-08-19T07:58:52;23.70;;;21.57;;
26034;SDS011;13809;48.632;11.576;2022-08-19T08:04:02;22.70;;;20.70;;
26034;SDS011;13809;48.632;11.576;2022-08-19T08:09:29;23.93;;;21.83;;
26034;SDS011;13809;48.632;11.576;2022-08-19T08:14:43;23.23;;;21.13;;
26034;SDS011;13809;48.632;11.576;2022-08-19T08:19:58;21.67;;;19.97;;
26034;SDS011;13809;48.632;11.576;2022-08-19T08:25:03;22.43;;;20.60;;
26034;SDS011;13809;48.632;11.576;2022-08-19T08:30:07;23.33;;;21.40;;
26034;SDS011;13809;48.632;11.576;2022-08-19T08:35:14;22.47;;;20.67;;
26034;SDS011;13809;48.632;11.576;2022-08-19T08:40:26;19.50;;;17.83;;
26034;SDS011;13809;48.632;11.576;2022-08-19T08:50:55;19.03;;;17.53;;
26034;SDS011;13809;48.632;11.576;2022-08-19T08:56:03;18.33;;;16.93;;
26034;SDS011;13809;48.632;11.576;2022-08-19T09:01:09;19.03;;;17.43;;
26034;SDS011;13809;48.632;11.576;2022-08-19T09:06:17;19.70;;;18.13;;
26034;SDS011;13809;48.632;11.576;2022-08-19T09:11:32;21.57;;;19.77;;
26034;SDS011;13809;48.632;11.576;2022-08-19T09:17:02;21.20;;;19.53;;
26034;SDS011;13809;48.632;11.576;2022-08-19T09:27:27;21.07;;;19.37;;
26034;SDS011;13809;48.632;11.576;2022-08-19T09:32:43;20.10;;;18.47;;
26034;SDS011;13809;48.632;11.576;2022-08-19T09:37:48;20.80;;;19.00;;
26034;SDS011;13809;48.632;11.576;2022-08-19T09:42:57;20.80;;;19.00;;
26034;SDS011;13809;48.632;11.576;2022-08-19T09:48:14;20.53;;;18.83;;
26034;SDS011;13809;48.632;11.576;2022-08-19T09:53:20;21.23;;;19.47;;
26034;SDS011;13809;48.632;11.576;2022-08-19T09:58:25;21.70;;;19.90;;
26034;SDS011;13809;48.632;11.576;2022-08-19T10:03:32;19.57;;;17.97;;
26034;SDS011;13809;48.632;11.576;2022-08-19T10:08:38;21.70;;;19.80;;
26034;SDS011;13809;48.632;11.576;2022-08-19T10:13:50;20.50;;;18.70;;
26034;SDS011;13809;48.632;11.576;2022-08-19T10:18:54;21.90;;;19.90;;
26034;SDS011;13809;48.632;11.576;2022-08-19T10:24:02;19.57;;;17.93;;
26034;SDS011;13809;48.632;11.576;2022-08-19T10:29:07;19.33;;;17.83;;
26034;SDS011;13809;48.632;11.576;2022-08-19T10:34:13;19.43;;;17.67;;
26034;SDS011;13809;48.632;11.576;2022-08-19T10:39:29;19.53;;;17.97;;
26034;SDS011;13809;48.632;11.576;2022-08-19T10:44:45;19.57;;;18.07;;
26034;SDS011;13809;48.632;11.576;2022-08-19T10:49:52;20.73;;;18.93;;
26034;SDS011;13809;48.632;11.576;2022-08-19T10:55:13;18.47;;;16.97;;
26034;SDS011;13809;48.632;11.576;2022-08-19T11:00:34;19.47;;;17.83;;
26034;SDS011;13809;48.632;11.576;2022-08-19T11:05:45;17.93;;;16.33;;
26034;SDS011;13809;48.632;11.576;2022-08-19T11:10:52;18.30;;;16.83;;
26034;SDS011;13809;48.632;11.576;2022-08-19T11:16:03;19.80;;;18.00;;
26034;SDS011;13809;48.632;11.576;2022-08-19T11:21:16;17.53;;;16.13;;
26034;SDS011;13809;48.632;11.576;2022-08-19T11:26:24;18.00;;;16.50;;
26034;SDS011;13809;48.632;11.576;2022-08-19T11:31:32;16.70;;;15.40;;
26034;SDS011;13809;48.632;11.576;2022-08-19T11:36:38;17.30;;;15.90;;
26034;SDS011;13809;48.632;11.576;2022-08-19T11:41:45;15.60;;;14.30;;
26034;SDS011;13809;48.632;11.576;2022-08-19T11:46:51;16.03;;;14.73;;
26034;SDS011;13809;48.632;11.576;2022-08-19T11:51:54;15.00;;;13.73;;
26034;SDS011;13809;48.632;11.576;2022-08-19T11:57:03;13.33;;;12.33;;
26034;SDS011;13809;48.632;11.576;2022-08-19T12:02:06;11.90;;;10.90;;
26034;SDS011;13809;48.632;11.576;2022-08-19T12:07:12;9.93;;;9.13;;
26034;SDS011;13809;48.632;11.576;2022-08-19T12:12:16;9.07;;;8.27;;
26034;SDS011;13809;48.632;11.576;2022-08-19T12:17:31;8.50;;;7.80;;
26034;SDS011;13809;48.632;11.576;2022-08-19T12:22:37;6.03;;;5.60;;
26034;SDS011;13809;48.632;11.576;2022-08-19T12:27:42;5.67;;;5.33;;
26034;SDS011;13809;48.632;11.576;2022-08-19T12:33:05;5.17;;;4.77;;
26034;SDS011;13809;48.632;11.576;2022-08-19T12:38:12;5.10;;;4.80;;
26034;SDS011;13809;48.632;11.576;2022-08-19T12:48:52;3.70;;;3.40;;
26034;SDS011;13809;48.632;11.576;2022-08-19T12:59:51;3.87;;;3.57;;
26034;SDS011;13809;48.632;11.576;2022-08-19T13:04:56;3.00;;;2.77;;
26034;SDS011;13809;48.632;11.576;2022-08-19T13:15:51;2.93;;;2.73;;
26034;SDS011;13809;48.632;11.576;2022-08-19T13:20:55;3.50;;;3.30;;
26034;SDS011;13809;48.632;11.576;2022-08-19T13:25:59;3.27;;;3.07;;
26034;SDS011;13809;48.632;11.576;2022-08-19T13:31:05;4.90;;;4.40;;
26034;SDS011;13809;48.632;11.576;2022-08-19T13:42:25;5.40;;;5.00;;
26034;SDS011;13809;48.632;11.576;2022-08-19T13:47:29;5.30;;;4.90;;
26034;SDS011;13809;48.632;11.576;2022-08-19T13:52:32;6.00;;;5.60;;
26034;SDS011;13809;48.632;11.576;2022-08-19T13:57:36;6.00;;;5.60;;
26034;SDS011;13809;48.632;11.576;2022-08-19T14:07:47;5.00;;;4.67;;
26034;SDS011;13809;48.632;11.576;2022-08-19T14:12:52;4.73;;;4.43;;
26034;SDS011;13809;48.632;11.576;2022-08-19T14:17:58;6.30;;;5.80;;
26034;SDS011;13809;48.632;11.576;2022-08-19T14:23:01;6.70;;;6.20;;
26034;SDS011;13809;48.632;11.576;2022-08-19T14:28:06;8.40;;;7.80;;
26034;SDS011;13809;48.632;11.576;2022-08-19T14:33:11;8.47;;;7.73;;
26034;SDS011;13809;48.632;11.576;2022-08-19T14:38:16;9.57;;;8.77;;
26034;SDS011;13809;48.632;11.576;2022-08-19T14:43:31;10.60;;;9.70;;
26034;SDS011;13809;48.632;11.576;2022-08-19T14:48:36;10.27;;;9.47;;
26034;SDS011;13809;48.632;11.576;2022-08-19T14:53:41;14.40;;;13.20;;
26034;SDS011;13809;48.632;11.576;2022-08-19T14:58:45;13.90;;;12.90;;
26034;SDS011;13809;48.632;11.576;2022-08-19T15:03:50;15.53;;;14.33;;
26034;SDS011;13809;48.632;11.576;2022-08-19T15:08:55;16.67;;;15.27;;
26034;SDS011;13809;48.632;11.576;2022-08-19T15:14:04;15.40;;;14.20;;
26034;SDS011;13809;48.632;11.576;2022-08-19T15:19:09;15.83;;;14.63;;
26034;SDS011;13809;48.632;11.576;2022-08-19T15:24:13;17.50;;;16.10;;
26034;SDS011;13809;48.632;11.576;2022-08-19T15:29:16;17.83;;;16.33;;
26034;SDS011;13809;48.632;11.576;2022-08-19T15:34:20;17.53;;;16.03;;
26034;SDS011;13809;48.632;11.576;2022-08-19T15:39:24;19.73;;;18.03;;
26034;SDS011;13809;48.632;11.576;2022-08-19T15:44:27;19.83;;;18.07;;
26034;SDS011;13809;48.632;11.576;2022-08-19T15:49:32;18.17;;;16.63;;
26034;SDS011;13809;48.632;11.576;2022-08-19T15:54:35;17.83;;;16.33;;
26034;SDS011;13809;48.632;11.576;2022-08-19T15:59:38;18.33;;;16.73;;
26034;SDS011;13809;48.632;11.576;2022-08-19T16:05:06;15.90;;;14.50;;
26034;SDS011;13809;48.632;11.576;2022-08-19T16:10:29;15.07;;;13.77;;
26034;SDS011;13809;48.632;11.576;2022-08-19T16:15:32;14.43;;;13.13;;
26034;SDS011;13809;48.632;11.576;2022-08-19T16:20:37;13.10;;;12.00;;
26034;SDS011;13809;48.632;11.576;2022-08-19T16:25:40;12.63;;;11.63;;
26034;SDS011;13809;48.632;11.576;2022-08-19T16:30:43;12.63;;;11.47;;
26034;SDS011;13809;48.632;11.576;2022-08-19T16:35:52;12.33;;;11.33;;
26034;SDS011;13809;48.632;11.576;2022-08-19T16:41:07;12.30;;;11.30;;
26034;SDS011;13809;48.632;11.576;2022-08-19T16:46:11;10.83;;;9.93;;
26034;SDS011;13809;48.632;11.576;2022-08-19T16:51:20;9.87;;;9.13;;
26034;SDS011;13809;48.632;11.576;2022-08-19T16:56:23;8.07;;;7.47;;
26034;SDS011;13809;48.632;11.576;2022-08-19T17:01:27;6.80;;;6.30;;
26034;SDS011;13809;48.632;11.576;2022-08-19T17:06:32;5.83;;;5.43;;
26034;SDS011;13809;48.632;11.576;2022-08-19T17:11:37;5.10;;;4.80;;
26034;SDS011;13809;48.632;11.576;2022-08-19T17:16:40;3.80;;;3.60;;
26034;SDS011;13809;48.632;11.576;2022-08-19T17:21:45;3.63;;;3.27;;
26034;SDS011;13809;48.632;11.576;2022-08-19T17:26:49;3.27;;;3.07;;
26034;SDS011;13809;48.632;11.576;2022-08-19T17:31:52;2.70;;;2.50;;
26034;SDS011;13809;48.632;11.576;2022-08-19T17:36:57;2.30;;;2.20;;
26034;SDS011;13809;48.632;11.576;2022-08-19T17:42:00;2.40;;;2.20;;
26034;SDS011;13809;48.632;11.576;2022-08-19T17:47:06;1.87;;;1.77;;
26034;SDS011;13809;48.632;11.576;2022-08-19T17:52:10;2.00;;;1.90;;
26034;SDS011;13809;48.632;11.576;2022-08-19T17:57:14;2.10;;;2.00;;
26034;SDS011;13809;48.632;11.576;2022-08-19T18:02:17;3.10;;;2.90;;
26034;SDS011;13809;48.632;11.576;2022-08-19T18:07:24;3.17;;;2.97;;
26034;SDS011;13809;48.632;11.576;2022-08-19T18:12:27;3.50;;;3.20;;
26034;SDS011;13809;48.632;11.576;2022-08-19T18:17:30;3.93;;;3.63;;
26034;SDS011;13809;48.632;11.576;2022-08-19T18:22:36;4.30;;;4.00;;
26034;SDS011;13809;48.632;11.576;2022-08-19T18:27:40;4.40;;;4.10;;
26034;SDS011;13809;48.632;11.576;2022-08-19T18:32:43;4.43;;;4.13;;
26034;SDS011;13809;48.632;11.576;2022-08-19T18:37:51;3.67;;;3.47;;
26034;SDS011;13809;48.632;11.576;2022-08-19T18:42:54;3.50;;;3.20;;
26034;SDS011;13809;48.632;11.576;2022-08-19T18:48:17;3.50;;;3.27;;
26034;SDS011;13809;48.632;11.576;2022-08-19T18:53:39;3.13;;;2.93;;
26034;SDS011;13809;48.632;11.576;2022-08-19T18:58:44;3.70;;;3.43;;
26034;SDS011;13809;48.632;11.576;2022-08-19T19:03:49;4.20;;;3.90;;
26034;SDS011;13809;48.632;11.576;2022-08-19T19:08:55;4.10;;;3.80;;
26034;SDS011;13809;48.632;11.576;2022-08-19T19:14:01;3.80;;;3.60;;
26034;SDS011;13809;48.632;11.576;2022-08-19T19:19:06;3.80;;;3.57;;
26034;SDS011;13809;48.632;11.576;2022-08-19T19:24:15;3.60;;;3.40;;
26034;SDS011;13809;48.632;11.576;2022-08-19T19:29:21;3.70;;;3.40;;
26034;SDS011;13809;48.632;11.576;2022-08-19T19:34:27;3.87;;;3.57;;
26034;SDS011;13809;48.632;11.576;2022-08-19T19:39:32;3.60;;;3.33;;
26034;SDS011;13809;48.632;11.576;2022-08-19T19:44:48;4.03;;;3.73;;
26034;SDS011;13809;48.632;11.576;2022-08-19T19:49:55;4.20;;;3.90;;
26034;SDS011;13809;48.632;11.576;2022-08-19T19:55:16;3.73;;;3.53;;
26034;SDS011;13809;48.632;11.576;2022-08-19T20:00:19;4.33;;;4.03;;
26034;SDS011;13809;48.632;11.576;2022-08-19T20:05:23;4.60;;;4.30;;
26034;SDS011;13809;48.632;11.576;2022-08-19T20:10:29;4.40;;;4.10;;
26034;SDS011;13809;48.632;11.576;2022-08-19T20:15:33;4.13;;;3.83;;
26034;SDS011;13809;48.632;11.576;2022-08-19T20:20:42;4.20;;;3.90;;
26034;SDS011;13809;48.632;11.576;2022-08-19T20:25:48;4.63;;;4.33;;
26034;SDS011;13809;48.632;11.576;2022-08-19T20:30:52;4.27;;;3.97;;
26034;SDS011;13809;48.632;11.576;2022-08-19T20:35:55;4.50;;;4.20;;
26034;SDS011;13809;48.632;11.576;2022-08-19T20:41:10;4.80;;;4.40;;
26034;SDS011;13809;48.632;11.576;2022-08-19T20:46:17;4.53;;;4.23;;
26034;SDS011;13809;48.632;11.576;2022-08-19T20:51:22;4.00;;;3.70;;
26034;SDS011;13809;48.632;11.576;2022-08-19T20:56:32;3.83;;;3.53;;
26034;SDS011;13809;48.632;11.576;2022-08-19T21:01:44;4.57;;;4.27;;
26034;SDS011;13809;48.632;11.576;2022-08-19T21:06:59;4.20;;;3.90;;
26034;SDS011;13809;48.632;11.576;2022-08-19T21:12:06;3.83;;;3.53;;
26034;SDS011;13809;48.632;11.576;2022-08-19T21:17:13;4.33;;;4.03;;
26034;SDS011;13809;48.632;11.576;2022-08-19T21:22:17;4.20;;;3.80;;
26034;SDS011;13809;48.632;11.576;2022-08-19T21:27:21;4.40;;;4.10;;
26034;SDS011;13809;48.632;11.576;2022-08-19T21:32:27;4.60;;;4.20;;
26034;SDS011;13809;48.632;11.576;2022-08-19T21:37:45;5.67;;;4.00;;
26034;SDS011;13809;48.632;11.576;2022-08-19T21:43:10;4.03;;;3.73;;
26034;SDS011;13809;48.632;11.576;2022-08-19T21:48:16;4.17;;;3.87;;
26034;SDS011;13809;48.632;11.576;2022-08-19T21:53:20;4.40;;;4.10;;
26034;SDS011;13809;48.632;11.576;2022-08-19T21:58:25;4.27;;;3.97;;
26034;SDS011;13809;48.632;11.576;2022-08-19T22:03:31;4.20;;;3.90;;
26034;SDS011;13809;48.632;11.576;2022-08-19T22:14:03;5.30;;;4.37;;
26034;SDS011;13809;48.632;11.576;2022-08-19T22:19:08;4.70;;;4.40;;
26034;SDS011;13809;48.632;11.576;2022-08-19T22:24:11;5.20;;;4.80;;
26034;SDS011;13809;48.632;11.576;2022-08-19T22:29:16;4.93;;;4.53;;
26034;SDS011;13809;48.632;11.576;2022-08-19T22:34:26;5.43;;;5.03;;
26034;SDS011;13809;48.632;11.576;2022-08-19T22:39:30;4.77;;;4.47;;
26034;SDS011;13809;48.632;11.576;2022-08-19T22:44:35;4.97;;;4.57;;
26034;SDS011;13809;48.632;11.576;2022-08-19T22:49:38;5.73;;;5.33;;
26034;SDS011;13809;48.632;11.576;2022-08-19T22:54:42;6.33;;;5.73;;
26034;SDS011;13809;48.632;11.576;2022-08-19T22:59:48;6.77;;;6.27;;
26034;SDS011;13809;48.632;11.576;2022-08-19T23:04:52;6.00;;;5.60;;
26034;SDS011;13809;48.632;11.576;2022-08-19T23:09:56;6.03;;;5.57;;
26034;SDS011;13809;48.632;11.576;2022-08-19T23:15:03;5.90;;;5.50;;
26034;SDS011;13809;48.632;11.576;2022-08-19T23:20:09;5.63;;;5.27;;
26034;SDS011;13809;48.632;11.576;2022-08-19T23:25:16;6.60;;;6.10;;
26034;SDS011;13809;48.632;11.576;2022-08-19T23:30:22;6.13;;;5.73;;
26034;SDS011;13809;48.632;11.576;2022-08-19T23:35:30;5.97;;;5.57;;
26034;SDS011;13809;48.632;11.576;2022-08-19T23:40:35;5.37;;;4.97;;
26034;SDS011;13809;48.632;11.576;2022-08-19T23:45:41;5.67;;;5.17;;
26034;SDS011;13809;48.632;11.576;2022-08-19T23:50:51;5.50;;;5.10;;
26034;SDS011;13809;48.632;11.576;2022-08-19T23:55:57;5.03;;;4.73;;
